Home > Products > Valid Products > TAF

000
FTUS43 KLMK 211400 AAA
TAFLEX
TAF AMD
KLEX 211428Z 2114/2212 08006KT 5SM BR SCT250
     FM211700 10006KT P6SM SCT250
     FM220900 13006KT P6SM BKN050=



000
FTUS43 KLMK 211400 AAA
TAFBWG
TAF AMD
KBWG 211427Z 2114/2212 06004KT 5SM BR SKC
     FM211700 09004KT P6SM SCT250
     FM220900 15004KT P6SM BKN050=



000
FTUS43 KLMK 211400 AAA
TAFSDF
TAF AMD
KSDF 211426Z 2114/2218 10004KT 5SM BR SCT250
     FM211700 11005KT P6SM SCT250
     FM221200 14007KT P6SM BKN050=



000
FTUS43 KLMK 211100
TAFLEX
TAF
KLEX 211130Z 2112/2212 08003KT 4SM BR SKC
     FM211400 10006KT P6SM SCT250
     FM220900 13006KT P6SM BKN050=



000
FTUS43 KLMK 211100
TAFSDF
TAF
KSDF 211130Z 2112/2218 02003KT 5SM BR SKC
     FM211400 10004KT P6SM SCT250
     FM221200 14007KT P6SM BKN050=



000
FTUS43 KLMK 211100
TAFBWG
TAF
KBWG 211130Z 2112/2212 00000KT 4SM BR SKC
     FM211400 09004KT P6SM SCT250
     FM220900 15004KT P6SM BKN050=



000
FTUS43 KLMK 210900 AAA
TAFBWG
TAF AMD
KBWG 210921Z 2109/2206 00000KT 5SM BR SKC
     FM211300 09004KT P6SM SCT250=



000
FTUS43 KLMK 210700 AAA
TAFSDF
TAF AMD
KSDF 210707Z 2107/2212 02003KT 5SM BR SCT250
     FM211300 10004KT P6SM SCT250=



000
FTUS43 KLMK 210500
TAFSDF
TAF
KSDF 210520Z 2106/2212 02003KT 6SM BR SCT250
     FM211300 10004KT P6SM SCT250=



000
FTUS43 KLMK 210500
TAFLEX
TAF
KLEX 210520Z 2106/2206 08003KT 4SM BR SCT250
     FM211300 10005KT P6SM SCT250=



000
FTUS43 KLMK 210500
TAFBWG
TAF
KBWG 210520Z 2106/2206 VRB03KT P6SM SKC
     FM210800 00000KT 6SM BR SKC
     FM211300 09004KT P6SM SCT250=



000
FTUS43 KLMK 210200 AAA
TAFLEX
TAF AMD
KLEX 210249Z 2103/2124 04005KT P6SM SCT050
      TEMPO 2103/2105 BKN050
     FM210900 06003KT P6SM SCT025
     FM211200 09004KT P6SM SCT040
     FM211600 11005KT P6SM SCT250=



000
FTUS43 KLMK 210100 AAA
TAFSDF
TAF AMD
KSDF 210133Z 2102/2206 02003KT P6SM SKC
      TEMPO 2109/2112 6SM BR
     FM211500 09004KT P6SM FEW040
     FM212000 13005KT P6SM SCT250=



000
FTUS43 KLMK 202300
TAFLEX
TAF
KLEX 202332Z 2100/2124 36004KT P6SM BKN025
      TEMPO 2102/2106 SCT025 BKN040
     FM210900 06003KT P6SM SCT025
     FM211200 09004KT P6SM SCT040
     FM211600 11005KT P6SM SCT250=



000
FTUS43 KLMK 202300
TAFBWG
TAF
KBWG 202332Z 2100/2124 VRB03KT P6SM SKC
     FM210700 00000KT 5SM BR SKC
      TEMPO 2109/2113 4SM BR
     FM211500 08003KT P6SM SCT250=



000
FTUS43 KLMK 202300
TAFSDF
TAF
KSDF 202332Z 2100/2206 02003KT P6SM BKN060
     FM210900 06004KT 6SM BR SCT030
     FM211500 09004KT P6SM SCT040
     FM212000 13005KT P6SM SCT250=



000
FTUS43 KLMK 202200 AAA
TAFLEX
TAF AMD
KLEX 202247Z 2023/2118 01004KT P6SM BKN025
     FM210100 01004KT P6SM SCT025 BKN040
     FM210900 06003KT P6SM BKN040
     FM211200 09004KT P6SM SCT040=



000
FTUS43 KLMK 201900 AAA
TAFSDF
TAF AMD
KSDF 201912Z 2019/2124 VRB03KT P6SM BKN060
      TEMPO 2019/2021 BKN023
     FM211100 06004KT 6SM BR SCT040
     FM211500 09004KT P6SM SCT040=



000
FTUS43 KLMK 201700
TAFSDF
TAF
KSDF 201720Z 2018/2124 36003KT P6SM SCT015 BKN050
     FM202200 01003KT P6SM BKN040
     FM211100 06004KT 6SM BR SCT040
     FM211500 09004KT P6SM SCT040=



000
FTUS43 KLMK 201700
TAFBWG
TAF
KBWG 201720Z 2018/2118 VRB03KT P6SM BKN050
     FM202200 VRB03KT P6SM SCT040
     FM210700 00000KT 5SM BR SKC=



000
FTUS43 KLMK 201700
TAFLEX
TAF
KLEX 201720Z 2018/2118 VRB03KT P6SM BKN050
     FM210900 06003KT P6SM BKN040
     FM211200 09004KT P6SM SCT040=



000
FTUS43 KLMK 201100
TAFSDF
TAF
KSDF 201127Z 2012/2118 36003KT P6SM BKN040
     FM202200 01003KT P6SM SCT040=



000
FTUS43 KLMK 201100
TAFBWG
TAF
KBWG 201127Z 2012/2112 VRB03KT P6SM BKN050
     FM202000 VRB03KT P6SM SCT040=



000
FTUS43 KLMK 201100
TAFLEX
TAF
KLEX 201127Z 2012/2112 02003KT P6SM BKN040
     FM210100 VRB04KT P6SM SCT040=



000
FTUS43 KLMK 200500
TAFBWG
TAF
KBWG 200522Z 2006/2106 03003KT P6SM -SN BKN040 BKN150
     FM200800 VRB03KT P6SM BKN035
     FM202000 VRB03KT P6SM SCT035=



000
FTUS43 KLMK 200500
TAFSDF
TAF
KSDF 200522Z 2006/2112 VRB04KT P6SM SCT060 OVC150
     FM200700 VRB03KT P6SM SCT015 BKN040
     FM202200 01003KT P6SM SCT020=



000
FTUS43 KLMK 200500
TAFLEX
TAF
KLEX 200522Z 2006/2106 06005KT P6SM BKN200
     FM201000 VRB03KT P6SM SCT020 BKN050
     FM210100 VRB04KT P6SM SCT025=



000
FTUS43 KLMK 192300
TAFBWG
TAF
KBWG 192333Z 2000/2024 03003KT P6SM BKN040 BKN150
     FM200900 00000KT 5SM HZ BKN035
     FM201300 VRB03KT P6SM BKN025
     FM201600 VRB03KT P6SM SCT025=



000
FTUS43 KLMK 192300
TAFSDF
TAF
KSDF 192333Z 2000/2106 03005KT P6SM SCT019 BKN200
     FM200700 00000KT 6SM HZ SCT015 BKN040
     FM201600 01003KT P6SM SCT020=



000
FTUS43 KLMK 192300
TAFLEX
TAF
KLEX 192333Z 2000/2024 04005KT P6SM FEW020 BKN200
     FM201000 VRB03KT 5SM HZ SCT020 BKN050
     FM201400 VRB04KT P6SM SCT025=



000
FTUS43 KLMK 191700
TAFSDF
TAF
KSDF 191729Z 1918/2024 02005KT P6SM SCT015 BKN250
     FM200900 VRB03KT 5SM HZ BKN060=



000
FTUS43 KLMK 191700
TAFBWG
TAF
KBWG 191729Z 1918/2018 VRB03KT P6SM BKN040
      TEMPO 2009/2013 4SM HZ=



000
FTUS43 KLMK 191700
TAFLEX
TAF
KLEX 191729Z 1918/2018 04005KT P6SM BKN015
     FM192000 04005KT P6SM SCT020
     FM201000 VRB03KT 5SM HZ BKN050=



000
FTUS43 KLMK 191500 AAA
TAFLEX
TAF AMD
KLEX 191556Z 1916/2012 04005KT P6SM BKN015
     FM191900 04005KT P6SM SCT020
     FM200400 VRB03KT P6SM SCT060 BKN200=



000
FTUS43 KLMK 191100 AAA
TAFSDF
TAF AMD
KSDF 191150Z 1912/2018 36004KT 6SM HZ SCT070
     FM191300 36005KT P6SM SCT070
     FM192300 01003KT P6SM SCT050 SCT200=



000
FTUS43 KLMK 191100
TAFBWG
TAF
KBWG 191120Z 1912/2012 VRB03KT P6SM SCT060
     FM200400 04004KT P6SM SCT050 OVC100=



000
FTUS43 KLMK 191100
TAFSDF
TAF
KSDF 191120Z 1912/2018 36004KT 6SM HZ SCT070
     FM192300 01003KT P6SM SCT050 SCT200=



000
FTUS43 KLMK 191100
TAFLEX
TAF
KLEX 191120Z 1912/2012 01005KT P6SM BKN060
     FM191400 01005KT P6SM SCT060
     FM200400 VRB03KT P6SM SCT060 BKN200=



000
FTUS43 KLMK 190500
TAFLEX
TAF
KLEX 190520Z 1906/2006 35004KT P6SM BKN050
     FM191000 VRB04KT P6SM SCT060=



000
FTUS43 KLMK 190500
TAFBWG
TAF
KBWG 190520Z 1906/2006 VRB03KT P6SM FEW030 OVC060
     FM191500 04004KT P6SM FEW030 SCT050=



000
FTUS43 KLMK 190500
TAFSDF
TAF
KSDF 190520Z 1906/2012 36004KT 6SM HZ SCT045 BKN070
     FM191500 01003KT P6SM SCT050=



000
FTUS43 KLMK 182300
TAFSDF
TAF
KSDF 182339Z 1900/2006 36004KT 6SM HZ FEW020 BKN100
     FM191500 01003KT P6SM FEW020 BKN060=



000
FTUS43 KLMK 182300
TAFLEX
TAF
KLEX 182339Z 1900/1924 VRB04KT P6SM FEW020 BKN060
     FM191000 VRB04KT P6SM SCT060=



000
FTUS43 KLMK 182300
TAFBWG
TAF
KBWG 182339Z 1900/1924 VRB03KT P6SM FEW020 SCT100
     FM191200 04004KT P6SM FEW030 BKN050=



000
FTUS43 KLMK 181700
TAFSDF
TAF
KSDF 181725Z 1818/1924 33004KT P6SM SCT025 OVC050
     FM190900 VRB04KT P6SM SCT060=



000
FTUS43 KLMK 181700
TAFBWG
TAF
KBWG 181725Z 1818/1918 VRB03KT P6SM SCT020 OVC050
     FM191200 VRB04KT P6SM SCT050=



000
FTUS43 KLMK 181700
TAFLEX
TAF
KLEX 181725Z 1818/1918 VRB04KT P6SM FEW020 BKN060
     FM191000 VRB04KT P6SM SCT060=



000
FTUS43 KLMK 181500 AAC
TAFSDF
TAF AMD
KSDF 181555Z 1816/1918 VRB04KT P6SM SCT020 OVC070
     FM181700 33005KT P6SM SCT025 OVC050
     FM182300 33003KT P6SM SCT025=



000
FTUS43 KLMK 181500 AAB
TAFSDF
TAF AMD
KSDF 181506Z 1815/1918 VRB04KT P6SM BKN020 OVC060
     FM181700 33005KT P6SM SCT025 OVC050
     FM182300 33003KT P6SM SCT025=



    US Dept of Commerce
    National Oceanic and Atmospheric Administration
    National Weather Service
    1325 East West Highway
    Silver Spring, MD 20910
    Page Author: NWS Internet Services Team
Disclaimer
Information Quality
Credits
Glossary
Privacy Policy
Freedom of Information Act (FOIA)
About Us
Career Opportunities